createdAt,value
2019-01-26T00:00:23.743Z,13.00
2019-01-26T00:03:27.504Z,13.87
2019-01-26T00:06:31.234Z,13.07
2019-01-26T00:09:34.920Z,13.57
2019-01-26T00:12:38.564Z,13.50
2019-01-26T00:15:42.311Z,13.30
2019-01-26T00:18:45.985Z,14.03
2019-01-26T00:21:49.664Z,14.20
2019-01-26T00:24:53.446Z,13.57
2019-01-26T00:27:57.066Z,14.30
2019-01-26T00:31:00.715Z,14.20
2019-01-26T00:34:04.493Z,12.63
2019-01-26T00:37:08.234Z,13.30
2019-01-26T00:40:12.000Z,13.40
2019-01-26T00:43:15.572Z,13.40
2019-01-26T00:46:19.183Z,12.27
2019-01-26T00:49:22.877Z,13.73
2019-01-26T00:52:26.540Z,13.73
2019-01-26T00:55:30.132Z,13.07
2019-01-26T00:58:33.773Z,13.23
2019-01-26T01:01:37.412Z,13.10
2019-01-26T01:04:41.149Z,12.90
2019-01-26T01:07:44.871Z,13.07
2019-01-26T01:10:48.459Z,12.63
2019-01-26T01:13:52.004Z,13.43
2019-01-26T01:16:55.707Z,13.57
2019-01-26T01:19:59.349Z,12.73
2019-01-26T01:23:03.061Z,13.20
2019-01-26T01:26:06.724Z,13.57
2019-01-26T01:29:10.498Z,12.17
2019-01-26T01:32:14.055Z,13.53
2019-01-26T01:35:17.667Z,12.93
2019-01-26T01:38:21.301Z,12.67
2019-01-26T01:41:24.933Z,13.20
2019-01-26T01:44:28.570Z,12.70
2019-01-26T01:47:32.169Z,12.83
2019-01-26T01:50:35.776Z,12.40
2019-01-26T01:53:39.497Z,12.13
2019-01-26T01:56:43.149Z,12.30
2019-01-26T01:59:46.870Z,12.57
2019-01-26T02:02:51.467Z,11.63
2019-01-26T02:05:56.157Z,11.63
2019-01-26T02:08:59.749Z,11.60
2019-01-26T02:12:03.303Z,11.27
2019-01-26T02:15:07.530Z,11.60
2019-01-26T02:18:11.189Z,11.80
2019-01-26T02:21:14.856Z,10.33
2019-01-26T02:24:18.496Z,11.37
2019-01-26T02:27:22.290Z,10.80
2019-01-26T02:30:25.877Z,10.80
2019-01-26T02:33:29.406Z,10.67
2019-01-26T02:36:33.108Z,10.97
2019-01-26T02:39:36.713Z,9.90
2019-01-26T02:42:40.439Z,9.73
2019-01-26T02:45:44.102Z,10.50
2019-01-26T02:48:47.692Z,10.75
2019-01-26T02:51:51.186Z,10.72
2019-01-26T02:54:54.856Z,11.53
2019-01-26T02:57:58.542Z,10.63
2019-01-26T03:01:02.142Z,11.00
2019-01-26T03:04:05.718Z,11.87
2019-01-26T03:07:09.373Z,10.60
2019-01-26T03:10:14.767Z,10.90
2019-01-26T03:13:18.408Z,11.45
2019-01-26T03:16:21.995Z,11.33
2019-01-26T03:19:25.614Z,10.67
2019-01-26T03:22:29.185Z,9.98
2019-01-26T03:25:32.804Z,11.68
2019-01-26T03:28:36.396Z,10.93
2019-01-26T03:31:39.982Z,10.90
2019-01-26T03:34:43.541Z,10.78
2019-01-26T03:37:47.268Z,10.93
2019-01-26T03:40:50.770Z,11.53
2019-01-26T03:43:54.297Z,10.72
2019-01-26T03:46:57.905Z,11.70
2019-01-26T03:50:01.551Z,12.15
2019-01-26T03:53:05.172Z,11.68
2019-01-26T03:56:08.722Z,11.85
2019-01-26T03:59:12.431Z,11.05
2019-01-26T04:02:16.114Z,12.03
2019-01-26T04:05:19.748Z,11.38
2019-01-26T04:08:23.407Z,11.45
2019-01-26T04:11:27.006Z,11.88
2019-01-26T04:14:30.628Z,10.95
2019-01-26T04:17:34.279Z,11.25
2019-01-26T04:20:37.982Z,10.88
2019-01-26T04:23:41.620Z,10.50
2019-01-26T04:26:45.280Z,10.05
2019-01-26T04:29:48.958Z,10.53
2019-01-26T04:32:52.527Z,10.45
2019-01-26T04:35:56.144Z,10.37
2019-01-26T04:38:59.742Z,10.90
2019-01-26T04:42:03.379Z,10.38
2019-01-26T04:45:08.797Z,10.28
2019-01-26T04:48:12.425Z,10.48
2019-01-26T04:51:16.045Z,10.43
2019-01-26T04:54:19.617Z,11.22
2019-01-26T04:57:23.230Z,9.58
2019-01-26T05:00:28.036Z,10.48
2019-01-26T05:03:31.667Z,9.60
2019-01-26T05:06:35.235Z,9.95
2019-01-26T05:09:38.988Z,9.95
2019-01-26T05:12:42.582Z,10.18
2019-01-26T05:15:46.182Z,10.00
2019-01-26T05:18:49.731Z,9.63
2019-01-26T05:21:53.410Z,10.45
2019-01-26T05:24:57.098Z,10.05
2019-01-26T05:28:00.804Z,10.45
2019-01-26T05:31:04.512Z,10.70
2019-01-26T05:34:08.203Z,10.50
2019-01-26T05:37:11.931Z,10.32
2019-01-26T05:40:16.230Z,10.70
2019-01-26T05:43:19.920Z,9.97
2019-01-26T05:46:23.610Z,9.45
2019-01-26T05:49:27.267Z,9.65
2019-01-26T05:52:30.967Z,9.93
2019-01-26T05:55:34.687Z,10.95
2019-01-26T05:58:38.286Z,9.93
2019-01-26T06:01:42.046Z,9.85
2019-01-26T06:04:45.652Z,9.05
2019-01-26T06:07:50.133Z,10.23
2019-01-26T06:10:52.969Z,10.43
2019-01-26T06:13:56.678Z,9.33
2019-01-26T06:17:00.207Z,10.53
2019-01-26T06:20:03.985Z,10.70
2019-01-26T06:23:07.610Z,10.13
2019-01-26T06:26:11.200Z,9.78
2019-01-26T06:29:14.819Z,9.53
2019-01-26T06:32:18.568Z,9.80
2019-01-26T06:35:22.263Z,9.53
2019-01-26T06:38:25.945Z,9.83
2019-01-26T06:41:29.564Z,9.47
2019-01-26T06:44:33.184Z,8.98
2019-01-26T06:47:37.002Z,9.75
2019-01-26T06:50:40.706Z,8.93
2019-01-26T06:53:44.403Z,10.05
2019-01-26T06:56:49.171Z,10.40
2019-01-26T06:59:52.841Z,9.43
2019-01-26T07:02:56.652Z,10.70
2019-01-26T07:06:11.422Z,10.13
2019-01-26T07:09:15.178Z,10.18
2019-01-26T07:12:18.963Z,9.80
2019-01-26T07:15:22.730Z,9.53
2019-01-26T07:18:26.246Z,10.98
2019-01-26T07:21:29.929Z,8.93
2019-01-26T07:24:33.622Z,9.97
2019-01-26T07:27:37.391Z,10.20
2019-01-26T07:30:41.080Z,9.90
2019-01-26T07:33:44.962Z,10.07
2019-01-26T07:36:48.595Z,9.73
2019-01-26T07:39:53.143Z,9.77
2019-01-26T07:42:56.882Z,9.83
2019-01-26T07:46:00.587Z,9.17
2019-01-26T07:49:04.294Z,9.83
2019-01-26T07:52:07.873Z,9.43
2019-01-26T07:55:11.621Z,9.63
2019-01-26T07:58:15.211Z,8.87
2019-01-26T08:01:18.858Z,9.67
2019-01-26T08:04:22.469Z,9.23
2019-01-26T08:07:26.352Z,9.37
2019-01-26T08:10:32.814Z,9.37
2019-01-26T08:13:36.495Z,9.57
2019-01-26T08:16:40.245Z,8.93
2019-01-26T08:19:43.947Z,8.83
2019-01-26T08:22:48.711Z,8.85
2019-01-26T08:25:52.475Z,9.10
2019-01-26T08:28:56.192Z,8.90
2019-01-26T08:32:00.116Z,8.63
2019-01-26T08:35:05.237Z,8.70
2019-01-26T08:38:08.990Z,7.92
2019-01-26T08:41:12.757Z,8.87
2019-01-26T08:44:16.451Z,8.90
2019-01-26T08:47:20.150Z,8.50
2019-01-26T08:50:25.136Z,7.72
2019-01-26T08:53:28.778Z,8.53
2019-01-26T08:56:32.591Z,8.00
2019-01-26T08:59:36.229Z,8.20
2019-01-26T09:04:46.959Z,8.68
2019-01-26T09:07:50.788Z,8.10
2019-01-26T09:10:54.761Z,7.60
2019-01-26T09:13:58.406Z,7.53
2019-01-26T09:17:02.214Z,7.55
2019-01-26T09:20:07.882Z,8.30
2019-01-26T09:23:11.649Z,7.40
2019-01-26T09:26:17.125Z,7.30
2019-01-26T09:29:20.783Z,7.80
2019-01-26T09:32:24.406Z,7.67
2019-01-26T09:35:28.026Z,8.20
2019-01-26T09:38:31.681Z,7.30
2019-01-26T09:41:35.309Z,7.55
2019-01-26T09:44:38.955Z,6.47
2019-01-26T09:47:42.572Z,7.22
2019-01-26T09:50:46.355Z,7.43
2019-01-26T09:53:49.887Z,7.53
2019-01-26T09:56:53.489Z,7.67
2019-01-26T09:59:57.087Z,7.63
2019-01-26T10:03:00.673Z,7.97
2019-01-26T10:06:04.323Z,8.67
2019-01-26T10:09:10.922Z,8.03
2019-01-26T10:12:14.522Z,8.03
2019-01-26T10:15:18.496Z,7.83
2019-01-26T10:18:22.152Z,7.50
2019-01-26T10:21:25.871Z,8.18
2019-01-26T10:24:29.523Z,9.10
2019-01-26T10:27:33.290Z,8.28
2019-01-26T10:30:41.505Z,8.33
2019-01-26T10:33:45.235Z,8.63
2019-01-26T10:36:53.269Z,9.15
2019-01-26T10:39:56.868Z,8.53
2019-01-26T10:43:01.329Z,8.30
2019-01-26T10:46:05.111Z,9.15
2019-01-26T10:49:08.723Z,8.60
2019-01-26T10:52:12.997Z,8.93
2019-01-26T10:55:19.243Z,8.90
2019-01-26T10:58:24.750Z,8.03
2019-01-26T11:01:28.657Z,8.13
2019-01-26T11:04:32.785Z,8.37
2019-01-26T11:07:36.681Z,8.10
2019-01-26T11:10:40.662Z,8.65
2019-01-26T11:13:45.580Z,8.10
2019-01-26T11:16:49.224Z,7.70
2019-01-26T11:19:52.781Z,7.93
2019-01-26T11:23:03.763Z,7.67
2019-01-26T11:26:08.718Z,8.47
2019-01-26T11:29:13.341Z,7.70
2019-01-26T11:35:49.027Z,8.53
2019-01-26T11:38:52.721Z,8.80
2019-01-26T11:41:56.944Z,8.70
2019-01-26T11:47:10.092Z,8.13
2019-01-26T11:50:18.314Z,8.30
2019-01-26T11:53:22.644Z,8.37
2019-01-26T11:56:31.916Z,8.17
2019-01-26T11:59:36.128Z,9.60
2019-01-26T12:02:48.379Z,9.00
2019-01-26T12:05:58.453Z,8.77
2019-01-26T12:09:05.137Z,8.43
2019-01-26T12:15:41.359Z,8.07
2019-01-26T12:18:45.836Z,8.67
2019-01-26T12:25:21.083Z,7.90
2019-01-26T12:28:24.739Z,7.47
2019-01-26T12:31:28.561Z,7.40
2019-01-26T12:34:32.539Z,7.00
2019-01-26T12:37:36.193Z,7.03
2019-01-26T12:40:40.988Z,7.97
2019-01-26T12:43:44.599Z,7.07
2019-01-26T12:46:48.388Z,7.13
2019-01-26T12:49:52.042Z,6.87
2019-01-26T12:52:55.683Z,7.30
2019-01-26T12:55:59.310Z,7.03
2019-01-26T12:59:04.070Z,7.83
2019-01-26T13:02:07.914Z,7.93
2019-01-26T13:05:11.602Z,7.77
2019-01-26T13:08:15.374Z,8.03
2019-01-26T13:11:22.943Z,7.80
2019-01-26T13:14:26.611Z,8.00
2019-01-26T13:17:30.290Z,8.03
2019-01-26T13:20:34.024Z,8.53
2019-01-26T13:23:37.570Z,9.20
2019-01-26T13:26:47.881Z,8.57
2019-01-26T13:29:51.514Z,9.33
2019-01-26T13:32:55.265Z,9.70
2019-01-26T13:35:58.945Z,10.17
2019-01-26T13:39:02.592Z,10.37
2019-01-26T13:42:06.499Z,9.53
2019-01-26T13:45:13.091Z,9.87
2019-01-26T13:48:16.675Z,9.83
2019-01-26T13:51:22.411Z,10.43
2019-01-26T13:54:26.252Z,9.87
2019-01-26T13:57:30.474Z,10.40
2019-01-26T14:00:34.157Z,9.67
2019-01-26T14:03:38.156Z,9.60
2019-01-26T14:06:42.215Z,8.77
2019-01-26T14:12:56.239Z,8.93
2019-01-26T14:15:59.947Z,8.90
2019-01-26T14:19:03.609Z,9.10
2019-01-26T14:22:07.221Z,8.63
2019-01-26T14:25:11.101Z,9.30
2019-01-26T14:28:14.962Z,9.27
2019-01-26T14:31:18.625Z,9.70
2019-01-26T14:34:22.201Z,8.93
2019-01-26T14:37:25.819Z,8.40
2019-01-26T14:40:29.553Z,8.57
2019-01-26T14:43:33.206Z,8.97
2019-01-26T14:46:36.870Z,8.67
2019-01-26T14:49:40.548Z,8.33
2019-01-26T14:52:44.257Z,8.67
2019-01-26T14:55:48.027Z,8.97
2019-01-26T14:58:51.684Z,8.43
2019-01-26T15:01:55.364Z,9.10
2019-01-26T15:04:58.992Z,9.00
2019-01-26T15:08:02.688Z,10.20
2019-01-26T15:11:06.961Z,8.47
2019-01-26T15:14:10.642Z,8.93
2019-01-26T15:17:14.320Z,8.20
2019-01-26T15:20:25.842Z,8.70
2019-01-26T15:23:30.331Z,8.30
2019-01-26T15:26:34.099Z,8.87
2019-01-26T15:29:37.693Z,8.27
2019-01-26T15:32:41.297Z,7.97
2019-01-26T15:35:45.017Z,8.47
2019-01-26T15:38:49.068Z,8.23
2019-01-26T15:41:52.759Z,8.53
2019-01-26T15:44:56.324Z,8.50
2019-01-26T15:48:00.041Z,8.60
2019-01-26T15:51:03.699Z,8.53
2019-01-26T15:54:07.405Z,9.13
2019-01-26T15:57:12.840Z,9.13
2019-01-26T16:00:19.037Z,8.97
2019-01-26T16:03:22.802Z,9.50
2019-01-26T16:06:26.886Z,9.73
2019-01-26T16:09:31.139Z,8.43
2019-01-26T16:12:34.719Z,8.57
2019-01-26T16:15:39.428Z,7.83
2019-01-26T16:18:43.469Z,8.73
2019-01-26T16:21:47.399Z,8.63
2019-01-26T16:24:51.028Z,9.33
2019-01-26T16:27:54.729Z,8.97
2019-01-26T16:30:58.492Z,9.10
2019-01-26T16:34:02.547Z,8.57
2019-01-26T16:37:06.241Z,8.53
2019-01-26T16:40:13.125Z,9.10
2019-01-26T16:43:17.353Z,9.47
2019-01-26T16:46:23.609Z,9.97
2019-01-26T16:49:28.359Z,8.77
2019-01-26T16:52:32.274Z,8.53
2019-01-26T16:55:37.357Z,8.60
2019-01-26T16:58:41.942Z,8.03
2019-01-26T17:01:46.623Z,8.47
2019-01-26T17:04:51.145Z,8.77
2019-01-26T17:07:56.270Z,8.07
2019-01-26T17:11:02.170Z,7.83
2019-01-26T17:14:07.609Z,8.20
2019-01-26T17:17:11.185Z,8.07
2019-01-26T17:20:18.205Z,7.90
2019-01-26T17:23:22.104Z,8.13
2019-01-26T17:26:25.813Z,8.23
2019-01-26T17:29:29.396Z,8.57
2019-01-26T17:32:33.034Z,8.60
2019-01-26T17:35:37.294Z,8.40
2019-01-26T17:38:40.973Z,8.10
2019-01-26T17:41:45.820Z,8.37
2019-01-26T17:44:49.521Z,8.10
2019-01-26T17:47:53.646Z,8.67
2019-01-26T17:50:58.288Z,8.10
2019-01-26T17:54:01.977Z,7.53
2019-01-26T17:57:06.508Z,8.13
2019-01-26T18:00:13.544Z,9.13
2019-01-26T18:03:17.291Z,8.87
2019-01-26T18:06:21.084Z,8.13
2019-01-26T18:09:24.793Z,8.47
2019-01-26T18:12:28.647Z,8.40
2019-01-26T18:15:32.322Z,8.67
2019-01-26T18:18:36.181Z,8.27
2019-01-26T18:21:40.985Z,8.57
2019-01-26T18:24:44.290Z,8.07
2019-01-26T18:27:48.491Z,8.03
2019-01-26T18:30:52.307Z,8.30
2019-01-26T18:33:56.103Z,7.90
2019-01-26T18:37:00.985Z,8.00
2019-01-26T18:40:06.007Z,7.87
2019-01-26T18:43:09.829Z,8.10
2019-01-26T18:46:13.593Z,8.43
2019-01-26T18:49:17.356Z,7.40
2019-01-26T18:52:21.116Z,7.47
2019-01-26T18:55:24.860Z,7.67
2019-01-26T18:58:28.989Z,8.67
2019-01-26T19:01:33.122Z,8.13
2019-01-26T19:04:42.649Z,7.83
2019-01-26T19:07:46.914Z,8.63
2019-01-26T19:10:50.561Z,8.17
2019-01-26T19:13:54.542Z,8.43
2019-01-26T19:16:58.652Z,7.47
2019-01-26T19:20:02.357Z,14.60
2019-01-26T19:23:07.639Z,8.80
2019-01-26T19:26:11.436Z,9.03
2019-01-26T19:29:17.850Z,7.40
2019-01-26T19:32:22.153Z,7.37
2019-01-26T19:35:25.980Z,7.23
2019-01-26T19:38:29.621Z,7.10
2019-01-26T19:41:33.767Z,7.20
2019-01-26T19:44:37.750Z,7.17
2019-01-26T19:47:41.541Z,6.73
2019-01-26T19:50:45.249Z,6.97
2019-01-26T19:53:48.988Z,8.33
2019-01-26T19:56:52.943Z,6.40
2019-01-26T19:59:57.137Z,6.67
2019-01-26T20:03:00.758Z,6.53
2019-01-26T20:06:04.431Z,6.23
2019-01-26T20:09:09.585Z,6.20
2019-01-26T20:12:13.428Z,6.53
2019-01-26T20:15:19.503Z,6.93
2019-01-26T20:18:23.477Z,7.47
2019-01-26T20:21:29.225Z,6.43
2019-01-26T20:24:32.956Z,8.00
2019-01-26T20:27:36.607Z,7.10
2019-01-26T20:30:40.476Z,6.87
2019-01-26T20:33:44.005Z,6.90
2019-01-26T20:36:47.674Z,7.17
2019-01-26T20:39:51.286Z,7.23
2019-01-26T20:42:55.034Z,7.03
2019-01-26T20:45:58.912Z,6.13
2019-01-26T20:49:02.534Z,7.30
2019-01-26T20:52:06.268Z,7.00
2019-01-26T20:55:10.478Z,7.13
2019-01-26T20:58:14.204Z,6.70
2019-01-26T21:01:17.858Z,6.93
2019-01-26T21:04:21.486Z,6.77
2019-01-26T21:07:25.213Z,6.70
2019-01-26T21:10:30.055Z,6.93
2019-01-26T21:13:33.826Z,6.40
2019-01-26T21:16:37.618Z,6.07
2019-01-26T21:19:42.290Z,6.70
2019-01-26T21:22:46.091Z,7.53
2019-01-26T21:25:49.996Z,8.13
2019-01-26T21:28:53.691Z,9.20
2019-01-26T21:31:58.012Z,9.13
2019-01-26T21:35:02.773Z,9.07
2019-01-26T21:38:06.456Z,9.07
2019-01-26T21:41:10.199Z,8.57
2019-01-26T21:44:13.769Z,8.50
2019-01-26T21:47:17.327Z,7.80
2019-01-26T21:50:25.586Z,6.70
2019-01-26T21:53:29.316Z,6.37
2019-01-26T21:56:33.456Z,6.13
2019-01-26T21:59:37.333Z,5.57
2019-01-26T22:02:40.985Z,6.20
2019-01-26T22:05:44.919Z,6.73
2019-01-26T22:08:49.294Z,5.23
2019-01-26T22:11:52.951Z,5.33
2019-01-26T22:14:56.581Z,4.53
2019-01-26T22:18:00.181Z,5.23
2019-01-26T22:21:03.996Z,4.60
2019-01-26T22:24:07.694Z,4.20
2019-01-26T22:27:11.714Z,3.73
2019-01-26T22:30:19.984Z,4.07
2019-01-26T22:33:24.122Z,4.17
2019-01-26T22:36:28.091Z,3.90
2019-01-26T22:39:31.962Z,3.80
2019-01-26T22:42:35.674Z,4.42
2019-01-26T22:45:39.681Z,3.60
2019-01-26T22:48:43.288Z,4.37
2019-01-26T22:51:53.225Z,3.70
2019-01-26T22:54:51.484Z,3.90
2019-01-26T22:57:55.335Z,3.87
2019-01-26T23:01:10.637Z,3.50
2019-01-26T23:05:26.158Z,3.40
2019-01-26T23:08:30.953Z,3.40
2019-01-26T23:12:21.773Z,3.33
2019-01-26T23:16:51.978Z,3.70
2019-01-26T23:20:01.836Z,3.50
2019-01-26T23:23:24.181Z,3.33
2019-01-26T23:31:06.607Z,2.80
2019-01-26T23:34:10.285Z,2.77
2019-01-26T23:37:14.077Z,2.90
2019-01-26T23:40:17.897Z,3.10
2019-01-26T23:43:21.575Z,3.13
2019-01-26T23:46:25.211Z,3.10
2019-01-26T23:49:28.876Z,3.30
2019-01-26T23:52:32.539Z,3.27
2019-01-26T23:55:36.153Z,3.33
2019-01-26T23:58:39.792Z,3.30
